createdAt,value
2023-02-11T00:01:27.750Z,74.57
2023-02-11T00:03:55.590Z,72.28
2023-02-11T00:06:22.844Z,63.70
2023-02-11T00:08:50.424Z,66.50
2023-02-11T00:11:19.977Z,78.55
2023-02-11T00:13:47.573Z,71.05
2023-02-11T00:16:18.015Z,73.00
2023-02-11T00:18:45.998Z,71.10
2023-02-11T00:21:19.568Z,61.47
2023-02-11T00:23:47.099Z,65.88
2023-02-11T00:26:17.276Z,73.90
2023-02-11T00:28:44.755Z,69.03
2023-02-11T00:31:12.893Z,69.05
2023-02-11T00:33:41.893Z,65.53
2023-02-11T00:36:12.039Z,65.85
2023-02-11T00:38:39.447Z,70.90
2023-02-11T00:41:07.774Z,65.05
2023-02-11T00:43:36.437Z,66.35
2023-02-11T00:46:07.203Z,71.95
2023-02-11T00:48:34.628Z,67.45
2023-02-11T00:51:02.400Z,72.35
2023-02-11T00:53:29.715Z,63.17
2023-02-11T00:55:57.191Z,67.78
2023-02-11T00:58:24.772Z,61.25
2023-02-11T01:00:52.347Z,68.22
2023-02-11T01:03:19.573Z,66.00
2023-02-11T01:05:47.205Z,69.75
2023-02-11T01:08:14.627Z,66.38
2023-02-11T01:10:41.935Z,66.40
2023-02-11T01:13:09.210Z,71.38
2023-02-11T01:15:36.504Z,63.03
2023-02-11T01:18:05.466Z,60.33
2023-02-11T01:20:32.836Z,72.43
2023-02-11T01:23:00.039Z,65.93
2023-02-11T01:25:27.257Z,64.13
2023-02-11T01:27:54.527Z,71.07
2023-02-11T01:30:21.892Z,64.55
2023-02-11T01:32:49.105Z,61.65
2023-02-11T01:35:16.526Z,65.60
2023-02-11T01:37:43.954Z,69.88
2023-02-11T01:40:18.010Z,65.90
2023-02-11T01:42:45.210Z,63.47
2023-02-11T01:45:57.677Z,65.50
2023-02-11T01:48:30.434Z,64.68
2023-02-11T01:51:06.026Z,65.75
2023-02-11T01:53:52.148Z,68.03
2023-02-11T01:56:38.921Z,72.68
2023-02-11T01:59:14.556Z,63.90
2023-02-11T02:01:44.157Z,65.85
2023-02-11T02:04:12.205Z,61.92
2023-02-11T02:06:51.221Z,58.90
2023-02-11T02:09:23.877Z,61.72
2023-02-11T02:11:51.763Z,67.13
2023-02-11T02:14:19.014Z,65.38
2023-02-11T02:16:46.265Z,65.75
2023-02-11T02:19:41.186Z,69.28
2023-02-11T02:22:17.454Z,65.05
2023-02-11T02:24:49.412Z,67.03
2023-02-11T02:27:44.322Z,64.70
2023-02-11T02:30:11.381Z,63.75
2023-02-11T02:33:07.904Z,66.72
2023-02-11T02:36:02.934Z,63.67
2023-02-11T02:38:44.709Z,65.05
2023-02-11T02:41:14.387Z,69.95
2023-02-11T02:43:44.778Z,70.85
2023-02-11T02:46:19.020Z,66.57
2023-02-11T02:48:47.191Z,70.28
2023-02-11T02:51:27.464Z,68.10
2023-02-11T02:54:36.892Z,66.80
2023-02-11T02:57:23.003Z,68.80
2023-02-11T03:00:27.956Z,74.38
2023-02-11T03:03:10.145Z,75.03
2023-02-11T03:05:48.212Z,69.85
2023-02-11T03:08:30.650Z,68.05
2023-02-11T03:10:58.782Z,69.13
2023-02-11T03:13:33.405Z,71.22
2023-02-11T03:16:11.538Z,70.47
2023-02-11T03:18:41.849Z,79.57
2023-02-11T03:21:10.155Z,68.65
2023-02-11T03:23:50.754Z,79.65
2023-02-11T03:26:32.420Z,78.60
2023-02-11T03:29:20.952Z,74.10
2023-02-11T03:31:57.043Z,74.30
2023-02-11T03:34:44.351Z,73.35
2023-02-11T03:37:22.125Z,76.05
2023-02-11T03:40:01.601Z,85.30
2023-02-11T03:42:34.464Z,78.72
2023-02-11T03:45:08.758Z,77.25
2023-02-11T03:47:38.935Z,84.55
2023-02-11T03:50:09.299Z,75.18
2023-02-11T03:52:37.996Z,68.40
2023-02-11T03:55:12.413Z,76.15
2023-02-11T03:57:40.219Z,75.28
2023-02-11T04:00:08.733Z,83.50
2023-02-11T04:02:37.010Z,88.37
2023-02-11T04:05:05.284Z,81.57
2023-02-11T04:07:32.657Z,79.95
2023-02-11T04:09:59.964Z,77.50
2023-02-11T04:12:27.439Z,83.32
2023-02-11T04:14:54.672Z,76.22
2023-02-11T04:17:21.882Z,70.47
2023-02-11T04:19:49.086Z,77.43
2023-02-11T04:22:16.338Z,76.40
2023-02-11T04:24:44.107Z,83.10
2023-02-11T04:27:11.321Z,82.80
2023-02-11T04:29:38.604Z,75.93
2023-02-11T04:32:05.822Z,85.20
2023-02-11T04:34:33.062Z,83.93
2023-02-11T04:37:00.271Z,78.25
2023-02-11T04:39:27.510Z,77.18
2023-02-11T04:41:54.661Z,81.50
2023-02-11T04:44:21.944Z,82.32
2023-02-11T04:46:49.251Z,82.20
2023-02-11T04:49:17.410Z,83.05
2023-02-11T04:51:46.995Z,85.05
2023-02-11T04:54:16.384Z,85.13
2023-02-11T04:56:43.648Z,89.45
2023-02-11T04:59:11.822Z,86.40
2023-02-11T05:01:39.293Z,85.18
2023-02-11T05:04:06.564Z,82.82
2023-02-11T05:06:33.814Z,87.93
2023-02-11T05:09:01.138Z,85.93
2023-02-11T05:11:28.404Z,93.00
2023-02-11T05:13:55.789Z,82.82
2023-02-11T05:16:23.123Z,88.32
2023-02-11T05:18:52.460Z,96.55
2023-02-11T05:21:20.101Z,86.30
2023-02-11T05:23:47.608Z,92.45
2023-02-11T05:26:15.640Z,92.05
2023-02-11T05:28:43.081Z,89.63
2023-02-11T05:31:11.079Z,91.53
2023-02-11T05:33:38.484Z,96.07
2023-02-11T05:36:10.521Z,91.70
2023-02-11T05:38:38.369Z,92.50
2023-02-11T05:41:06.346Z,88.68
2023-02-11T05:43:35.374Z,94.22
2023-02-11T05:46:03.530Z,99.93
2023-02-11T05:48:31.309Z,97.97
2023-02-11T05:50:58.610Z,95.57
2023-02-11T05:53:25.899Z,96.25
2023-02-11T05:55:53.515Z,94.15
2023-02-11T05:58:20.803Z,93.10
2023-02-11T06:00:48.033Z,99.63
2023-02-11T06:03:15.304Z,98.95
2023-02-11T06:05:44.134Z,90.78
2023-02-11T06:08:11.409Z,95.03
2023-02-11T06:10:38.804Z,100.20
2023-02-11T06:13:06.036Z,97.78
2023-02-11T06:15:33.258Z,96.43
2023-02-11T06:18:00.482Z,100.47
2023-02-11T06:20:27.732Z,98.07
2023-02-11T06:22:54.958Z,92.28
2023-02-11T06:25:22.158Z,101.60
2023-02-11T06:27:49.384Z,101.00
2023-02-11T06:30:16.579Z,98.75
2023-02-11T06:32:45.492Z,103.07
2023-02-11T06:37:41.958Z,107.97
2023-02-11T06:40:10.071Z,102.88
2023-02-11T06:42:39.351Z,108.63
2023-02-11T06:47:36.612Z,104.82
2023-02-11T06:50:03.996Z,101.63
2023-02-11T06:52:31.427Z,107.70
2023-02-11T06:54:58.657Z,109.85
2023-02-11T06:57:25.867Z,110.85
2023-02-11T06:59:53.108Z,105.78
2023-02-11T07:02:21.101Z,108.50
2023-02-11T07:04:48.596Z,104.75
2023-02-11T07:07:15.941Z,106.25
2023-02-11T07:09:43.145Z,109.97
2023-02-11T07:12:11.132Z,102.40
2023-02-11T07:14:38.503Z,109.35
2023-02-11T07:17:05.885Z,119.72
2023-02-11T07:19:33.075Z,103.10
2023-02-11T07:22:00.297Z,112.28
2023-02-11T07:24:27.589Z,97.13
2023-02-11T07:26:55.146Z,105.47
2023-02-11T07:29:22.399Z,106.10
2023-02-11T07:31:50.289Z,100.28
2023-02-11T07:34:17.559Z,107.93
2023-02-11T07:36:45.170Z,100.68
2023-02-11T07:39:12.817Z,103.72
2023-02-11T07:41:40.077Z,99.75
2023-02-11T07:44:07.324Z,108.00
2023-02-11T07:46:36.864Z,101.55
2023-02-11T07:49:04.252Z,108.07
2023-02-11T07:51:31.755Z,105.93
2023-02-11T07:53:59.992Z,96.28
2023-02-11T07:56:28.273Z,99.30
2023-02-11T07:58:56.773Z,102.78
2023-02-11T08:01:28.290Z,103.23
2023-02-11T08:04:00.309Z,97.82
2023-02-11T08:06:30.212Z,102.50
2023-02-11T08:08:57.450Z,100.45
2023-02-11T08:11:27.272Z,100.25
2023-02-11T08:13:55.641Z,98.97
2023-02-11T08:16:34.359Z,102.38
2023-02-11T08:19:04.125Z,89.10
2023-02-11T08:21:31.519Z,96.07
2023-02-11T08:23:58.901Z,96.97
2023-02-11T08:26:28.949Z,94.15
2023-02-11T08:28:58.024Z,95.00
2023-02-11T08:31:27.575Z,97.78
2023-02-11T08:33:57.913Z,86.78
2023-02-11T08:36:29.086Z,85.68
2023-02-11T08:39:12.158Z,87.07
2023-02-11T08:41:45.337Z,91.55
2023-02-11T08:44:12.879Z,86.72
2023-02-11T08:46:40.563Z,89.68
2023-02-11T08:49:07.806Z,88.78
2023-02-11T08:51:35.110Z,89.60
2023-02-11T08:54:02.387Z,94.40
2023-02-11T08:56:31.614Z,88.97
2023-02-11T08:59:00.351Z,88.25
2023-02-11T09:01:29.937Z,90.90
2023-02-11T09:03:58.123Z,87.13
2023-02-11T09:06:26.469Z,84.55
2023-02-11T09:08:56.604Z,86.82
2023-02-11T09:11:27.979Z,89.32
2023-02-11T09:13:55.183Z,84.72
2023-02-11T09:16:24.901Z,84.75
2023-02-11T09:18:52.402Z,85.20
2023-02-11T09:21:20.193Z,84.63
2023-02-11T09:23:48.531Z,83.35
2023-02-11T09:26:21.917Z,82.45
2023-02-11T09:28:51.403Z,78.03
2023-02-11T09:31:21.708Z,94.32
2023-02-11T09:33:51.021Z,82.65
2023-02-11T09:38:49.914Z,75.20
2023-02-11T09:41:32.041Z,82.07
2023-02-11T09:44:04.854Z,85.47
2023-02-11T09:46:35.611Z,72.70
2023-02-11T09:49:04.690Z,82.95
2023-02-11T09:52:21.422Z,84.57
2023-02-11T09:55:06.618Z,81.10
2023-02-11T09:57:36.174Z,72.03
2023-02-11T10:00:21.093Z,73.97
2023-02-11T10:03:14.022Z,70.22
2023-02-11T10:06:05.863Z,76.10
2023-02-11T10:08:53.205Z,70.88
2023-02-11T10:11:36.847Z,72.97
2023-02-11T10:14:25.170Z,81.40
2023-02-11T10:17:30.026Z,72.40
2023-02-11T10:20:25.201Z,74.82
2023-02-11T10:22:58.681Z,73.28
2023-02-11T10:25:43.147Z,68.75
2023-02-11T10:28:17.560Z,67.78
2023-02-11T10:30:58.142Z,69.45
2023-02-11T10:33:45.361Z,67.93
2023-02-11T10:36:14.184Z,64.72
2023-02-11T10:38:41.648Z,72.05
2023-02-11T10:41:16.783Z,71.57
2023-02-11T10:43:44.262Z,67.88
2023-02-11T10:46:19.430Z,71.68
2023-02-11T10:48:52.911Z,68.63
2023-02-11T10:51:26.837Z,71.97
2023-02-11T10:54:13.818Z,78.43
2023-02-11T10:56:46.131Z,69.95
2023-02-11T10:59:28.057Z,62.85
2023-02-11T11:02:00.690Z,82.38
2023-02-11T11:04:32.120Z,72.90
2023-02-11T11:07:23.865Z,71.88
2023-02-11T11:10:02.610Z,78.57
2023-02-11T11:12:44.802Z,75.28
2023-02-11T11:15:16.384Z,79.22
2023-02-11T11:17:43.608Z,81.00
2023-02-11T11:20:24.597Z,72.45
2023-02-11T11:22:54.981Z,76.70
2023-02-11T11:25:28.374Z,80.22
2023-02-11T11:28:02.881Z,73.10
2023-02-11T11:30:39.374Z,78.32
2023-02-11T11:33:21.792Z,75.20
2023-02-11T11:36:09.660Z,70.85
2023-02-11T11:39:25.344Z,68.18
2023-02-11T11:41:58.644Z,70.82
2023-02-11T11:44:37.195Z,76.70
2023-02-11T11:47:13.580Z,81.45
2023-02-11T11:49:43.503Z,86.40
2023-02-11T11:52:10.706Z,74.95
2023-02-11T11:54:39.391Z,73.93
2023-02-11T11:57:15.987Z,64.32
2023-02-11T11:59:43.382Z,69.40
2023-02-11T12:02:33.873Z,71.50
2023-02-11T12:05:37.850Z,70.15
2023-02-11T12:08:21.703Z,70.47
2023-02-11T12:11:12.933Z,63.45
2023-02-11T12:14:01.114Z,64.05
2023-02-11T12:17:11.361Z,72.82
2023-02-11T12:20:04.762Z,60.58
2023-02-11T12:22:48.797Z,63.72
2023-02-11T12:25:35.855Z,54.25
2023-02-11T12:28:29.919Z,61.90
2023-02-11T12:31:29.146Z,53.95
2023-02-11T12:34:17.346Z,52.53
2023-02-11T12:37:19.449Z,49.65
2023-02-11T12:40:03.499Z,59.17
2023-02-11T12:43:05.031Z,48.28
2023-02-11T12:46:18.472Z,41.80
2023-02-11T12:48:57.845Z,51.40
2023-02-11T12:51:42.787Z,42.28
2023-02-11T12:54:42.186Z,48.22
2023-02-11T12:57:31.142Z,45.42
2023-02-11T13:00:08.652Z,47.28
2023-02-11T13:02:55.101Z,40.95
2023-02-11T13:05:49.433Z,39.55
2023-02-11T13:08:21.649Z,41.83
2023-02-11T13:10:53.401Z,45.05
2023-02-11T13:13:31.918Z,37.53
2023-02-11T13:16:07.884Z,42.30
2023-02-11T13:18:42.916Z,43.47
2023-02-11T13:21:26.736Z,40.35
2023-02-11T13:24:20.098Z,41.28
2023-02-11T13:27:15.455Z,38.75
2023-02-11T13:30:18.782Z,42.90
2023-02-11T13:32:55.470Z,43.97
2023-02-11T13:35:32.732Z,42.97
2023-02-11T13:38:01.561Z,40.03
2023-02-11T13:40:37.765Z,35.72
2023-02-11T13:43:10.379Z,39.28
2023-02-11T13:45:47.841Z,41.47
2023-02-11T13:48:37.152Z,36.10
2023-02-11T13:53:54.984Z,40.28
2023-02-11T13:56:34.009Z,37.83
2023-02-11T13:59:26.881Z,42.67
2023-02-11T14:02:12.855Z,42.20
2023-02-11T14:05:23.547Z,34.92
2023-02-11T14:08:27.921Z,37.72
2023-02-11T14:11:01.171Z,35.40
2023-02-11T14:13:28.879Z,32.38
2023-02-11T14:16:22.650Z,39.10
2023-02-11T14:18:55.433Z,34.20
2023-02-11T14:21:34.968Z,36.78
2023-02-11T14:24:03.153Z,28.35
2023-02-11T14:26:49.576Z,33.85
2023-02-11T14:29:20.134Z,28.48
2023-02-11T14:31:55.281Z,33.53
2023-02-11T14:34:59.392Z,23.70
2023-02-11T14:37:51.147Z,29.00
2023-02-11T14:40:30.222Z,33.55
2023-02-11T14:43:02.402Z,28.27
2023-02-11T14:45:31.132Z,29.27
2023-02-11T14:48:08.549Z,30.10
2023-02-11T14:50:59.089Z,24.88
2023-02-11T14:53:26.776Z,33.80
2023-02-11T14:55:55.550Z,30.42
2023-02-11T14:58:28.451Z,30.00
2023-02-11T15:01:06.526Z,33.67
2023-02-11T15:03:47.227Z,30.88
2023-02-11T15:06:22.721Z,32.78
2023-02-11T15:09:00.974Z,30.55
2023-02-11T15:11:32.010Z,29.10
2023-02-11T15:14:06.771Z,33.15
2023-02-11T15:16:36.027Z,33.90
2023-02-11T15:21:35.068Z,30.77
2023-02-11T15:27:08.118Z,33.92
2023-02-11T15:29:39.865Z,31.13
2023-02-11T15:32:15.102Z,37.53
2023-02-11T15:34:43.264Z,30.25
2023-02-11T15:37:14.582Z,35.80
2023-02-11T15:39:51.955Z,30.55
2023-02-11T15:42:34.075Z,29.92
2023-02-11T15:45:15.690Z,29.48
2023-02-11T15:47:49.086Z,37.53
2023-02-11T15:50:25.812Z,29.60
2023-02-11T15:52:53.582Z,31.70
2023-02-11T15:55:21.288Z,32.17
2023-02-11T15:57:59.082Z,30.52
2023-02-11T16:00:34.714Z,33.90
2023-02-11T16:03:02.162Z,34.15
2023-02-11T16:05:40.697Z,32.60
2023-02-11T16:08:24.659Z,38.72
2023-02-11T16:11:34.231Z,30.80
2023-02-11T16:14:05.809Z,28.63
2023-02-11T16:16:34.940Z,35.60
2023-02-11T16:19:05.171Z,34.45
2023-02-11T16:21:39.283Z,36.40
2023-02-11T16:24:07.656Z,36.95
2023-02-11T16:26:36.485Z,30.88
2023-02-11T16:29:25.166Z,34.25
2023-02-11T16:31:53.878Z,36.83
2023-02-11T16:34:23.591Z,42.58
2023-02-11T16:36:52.383Z,33.90
2023-02-11T16:39:22.492Z,34.47
2023-02-11T16:41:50.820Z,27.63
2023-02-11T16:44:23.200Z,43.15
2023-02-11T16:46:50.673Z,32.28
2023-02-11T16:49:27.394Z,35.38
2023-02-11T16:51:56.911Z,34.58
2023-02-11T16:54:24.266Z,41.63
2023-02-11T16:56:51.714Z,35.03
2023-02-11T16:59:19.168Z,38.22
2023-02-11T17:01:46.942Z,33.63
2023-02-11T17:04:21.261Z,28.77
2023-02-11T17:06:48.556Z,29.83
2023-02-11T17:09:22.927Z,33.20
2023-02-11T17:11:50.321Z,30.67
2023-02-11T17:14:18.161Z,30.40
2023-02-11T17:16:46.922Z,29.88
2023-02-11T17:19:15.837Z,28.88
2023-02-11T17:21:47.438Z,25.90
2023-02-11T17:24:16.506Z,35.75
2023-02-11T17:26:44.916Z,31.08
2023-02-11T17:29:14.662Z,29.35
2023-02-11T17:31:42.139Z,26.95
2023-02-11T17:34:11.697Z,27.88
2023-02-11T17:36:40.875Z,28.35
2023-02-11T17:39:08.423Z,22.05
2023-02-11T17:41:38.895Z,23.90
2023-02-11T17:44:07.656Z,25.15
2023-02-11T17:46:35.556Z,23.52
2023-02-11T17:49:03.137Z,24.08
2023-02-11T17:51:33.037Z,25.35
2023-02-11T17:54:06.530Z,21.98
2023-02-11T17:56:35.055Z,22.38
2023-02-11T17:59:02.943Z,22.13
2023-02-11T18:01:31.791Z,23.58
2023-02-11T18:03:59.179Z,24.33
2023-02-11T18:06:29.101Z,23.90
2023-02-11T18:08:59.577Z,23.60
2023-02-11T18:11:27.859Z,25.00
2023-02-11T18:13:55.122Z,24.80
2023-02-11T18:16:23.873Z,27.73
2023-02-11T18:18:51.241Z,23.60
2023-02-11T18:21:20.243Z,24.95
2023-02-11T18:23:48.386Z,26.08
2023-02-11T18:26:18.111Z,23.90
2023-02-11T18:28:46.204Z,24.30
2023-02-11T18:31:14.425Z,23.65
2023-02-11T18:33:42.266Z,24.48
2023-02-11T18:36:12.080Z,27.25
2023-02-11T18:38:40.006Z,23.20
2023-02-11T18:41:07.618Z,18.17
2023-02-11T18:43:35.173Z,26.63
2023-02-11T18:46:06.695Z,21.30
2023-02-11T18:48:34.091Z,23.15
2023-02-11T18:51:01.665Z,20.20
2023-02-11T18:53:28.955Z,20.80
2023-02-11T18:55:56.203Z,18.23
2023-02-11T18:58:23.498Z,23.70
2023-02-11T19:00:52.227Z,18.55
2023-02-11T19:03:19.454Z,21.00
2023-02-11T19:05:49.201Z,22.15
2023-02-11T19:08:17.168Z,20.48
2023-02-11T19:10:46.342Z,25.30
2023-02-11T19:13:14.008Z,18.83
2023-02-11T19:15:42.222Z,20.73
2023-02-11T19:18:09.759Z,20.90
2023-02-11T19:20:40.139Z,18.17
2023-02-11T19:23:07.687Z,19.58
2023-02-11T19:25:35.039Z,22.05
2023-02-11T19:28:03.261Z,20.65
2023-02-11T19:30:32.638Z,20.88
2023-02-11T19:35:27.009Z,21.33
2023-02-11T19:37:54.235Z,21.17
2023-02-11T19:40:21.637Z,19.70
2023-02-11T19:42:49.163Z,20.35
2023-02-11T19:45:16.481Z,20.45
2023-02-11T19:47:43.706Z,17.98
2023-02-11T19:50:11.529Z,18.17
2023-02-11T19:52:40.262Z,20.50
2023-02-11T19:55:08.017Z,21.25
2023-02-11T19:57:36.337Z,19.35
2023-02-11T20:00:03.938Z,19.75
2023-02-11T20:02:31.222Z,20.00
2023-02-11T20:05:00.574Z,17.48
2023-02-11T20:09:57.031Z,19.23
2023-02-11T20:12:24.334Z,21.17
2023-02-11T20:14:51.553Z,18.42
2023-02-11T20:17:18.738Z,17.52
2023-02-11T20:19:45.929Z,20.20
2023-02-11T20:22:13.251Z,20.73
2023-02-11T20:24:40.504Z,18.13
2023-02-11T20:27:08.421Z,18.30
2023-02-11T20:29:37.695Z,20.60
2023-02-11T20:34:33.413Z,19.70
2023-02-11T20:37:00.696Z,22.30
2023-02-11T20:39:28.107Z,17.67
2023-02-11T20:41:56.481Z,18.55
2023-02-11T20:44:24.011Z,17.77
2023-02-11T20:46:53.189Z,22.50
2023-02-11T20:49:22.933Z,20.58
2023-02-11T20:51:52.037Z,21.92
2023-02-11T20:54:20.441Z,24.73
2023-02-11T20:56:48.522Z,18.80
2023-02-11T20:59:16.846Z,23.23
2023-02-11T21:01:46.739Z,18.97
2023-02-11T21:04:19.651Z,24.08
2023-02-11T21:06:49.006Z,19.48
2023-02-11T21:09:22.034Z,17.48
2023-02-11T21:11:51.615Z,20.38
2023-02-11T21:14:19.966Z,19.48
2023-02-11T21:16:48.279Z,23.45
2023-02-11T21:19:16.077Z,24.73
2023-02-11T21:21:43.492Z,22.88
2023-02-11T21:24:11.590Z,18.08
2023-02-11T21:26:38.889Z,25.52
2023-02-11T21:29:07.322Z,17.55
2023-02-11T21:31:36.104Z,21.27
2023-02-11T21:34:04.035Z,23.88
2023-02-11T21:36:31.298Z,19.20
2023-02-11T21:38:58.624Z,21.40
2023-02-11T21:41:27.452Z,18.50
2023-02-11T21:43:56.855Z,23.00
2023-02-11T21:46:26.177Z,22.67
2023-02-11T21:51:23.275Z,23.98
2023-02-11T21:53:58.570Z,24.15
2023-02-11T21:56:28.048Z,27.13
2023-02-11T21:58:57.140Z,19.97
2023-02-11T22:01:33.844Z,24.38
2023-02-11T22:04:01.317Z,20.55
2023-02-11T22:06:34.120Z,21.20
2023-02-11T22:09:04.546Z,16.95
2023-02-11T22:11:31.733Z,19.55
2023-02-11T22:13:59.135Z,17.00
2023-02-11T22:16:27.566Z,24.27
2023-02-11T22:18:56.451Z,16.13
2023-02-11T22:21:24.052Z,20.92
2023-02-11T22:23:52.092Z,25.98
2023-02-11T22:26:23.013Z,18.48
2023-02-11T22:28:50.575Z,18.15
2023-02-11T22:31:20.306Z,21.52
2023-02-11T22:33:48.002Z,26.23
2023-02-11T22:36:20.725Z,18.58
2023-02-11T22:38:48.572Z,18.85
2023-02-11T22:41:17.141Z,22.33
2023-02-11T22:43:44.925Z,16.02
2023-02-11T22:46:14.531Z,19.80
2023-02-11T22:48:42.036Z,22.65
2023-02-11T22:51:19.287Z,19.73
2023-02-11T22:53:53.890Z,17.38
2023-02-11T22:56:21.819Z,18.25
2023-02-11T22:58:49.778Z,24.15
2023-02-11T23:01:17.390Z,23.58
2023-02-11T23:03:44.728Z,19.50
2023-02-11T23:06:12.331Z,20.85
2023-02-11T23:08:40.873Z,23.55
2023-02-11T23:11:11.557Z,24.13
2023-02-11T23:13:40.740Z,28.73
2023-02-11T23:16:11.066Z,21.80
2023-02-11T23:18:39.900Z,23.95
2023-02-11T23:21:12.403Z,18.98
2023-02-11T23:23:40.154Z,22.73
2023-02-11T23:26:11.032Z,21.40
2023-02-11T23:28:38.639Z,21.15
2023-02-11T23:31:20.097Z,18.98
2023-02-11T23:33:48.576Z,22.13
2023-02-11T23:36:17.169Z,13.43
2023-02-11T23:38:44.614Z,19.95
2023-02-11T23:41:12.306Z,20.00
2023-02-11T23:43:39.659Z,20.77
2023-02-11T23:46:11.963Z,22.90
2023-02-11T23:48:40.534Z,18.85
2023-02-11T23:51:09.791Z,21.95
2023-02-11T23:53:38.294Z,23.08
2023-02-11T23:56:10.777Z,17.37
2023-02-11T23:58:38.148Z,19.30
